Time;durP1;ratioP1;P1;durP2;ratioP2;P2;SDS_P1;SDS_P2;PMS_P1;PMS_P2;Temp;Humidity;BMP_temperature;BMP_pressure;BME280_temperature;BME280_humidity;BME280_pressure;Samples;Min_cycle;Max_cycle;Signal;HPM_P1;HPM_P2
2022/11/22 00:02:27;;;;;;;9.70;5.05;;;5.70;33.70;;;;;;7349148;19;20035;-66
2022/11/22 00:04:59;;;;;;;11.70;5.90;;;5.80;34.50;;;;;;7360711;19;20494;-66
2022/11/22 00:07:29;;;;;;;9.82;5.68;;;5.80;34.50;;;;;;7361944;19;20018;-66
2022/11/22 00:09:59;;;;;;;11.85;5.97;;;5.80;34.70;;;;;;7359280;19;20021;-66
2022/11/22 00:12:29;;;;;;;12.48;5.30;;;5.80;34.50;;;;;;7351212;19;20038;-66
2022/11/22 00:14:58;;;;;;;10.57;5.05;;;5.80;34.60;;;;;;7382333;19;20493;-66
2022/11/22 00:17:28;;;;;;;7.25;4.70;;;5.80;35.10;;;;;;7359910;19;20010;-66
2022/11/22 00:20:01;;;;;;;6.22;3.92;;;5.80;35.10;;;;;;7360148;19;20018;-66
2022/11/22 00:22:32;;;;;;;9.85;4.70;;;5.90;34.60;;;;;;7351181;19;20030;-66
2022/11/22 00:25:02;;;;;;;9.57;4.93;;;5.90;34.10;;;;;;7361308;19;20012;-66
2022/11/22 00:27:32;;;;;;;13.10;4.97;;;5.80;34.50;;;;;;7362193;19;20015;-65
2022/11/22 00:30:02;;;;;;;12.18;5.47;;;5.90;34.50;;;;;;7381648;19;20021;-65
2022/11/22 00:32:32;;;;;;;13.63;4.63;;;5.90;34.60;;;;;;7352966;19;20022;-66
2022/11/22 00:35:05;;;;;;;9.40;4.70;;;5.90;34.10;;;;;;7359774;19;20011;-66
2022/11/22 00:37:35;;;;;;;9.73;5.18;;;5.90;34.00;;;;;;7362317;19;20070;-65
2022/11/22 00:40:05;;;;;;;9.07;5.30;;;5.90;33.70;;;;;;7359840;19;20021;-65
2022/11/22 00:42:35;;;;;;;13.23;5.18;;;5.90;33.20;;;;;;7352175;19;20020;-65
2022/11/22 00:45:05;;;;;;;8.30;5.22;;;5.90;33.00;;;;;;7381989;19;20366;-65
2022/11/22 00:47:35;;;;;;;9.95;5.30;;;5.90;32.80;;;;;;7361464;19;20073;-65
2022/11/22 00:50:08;;;;;;;10.95;5.30;;;5.90;32.90;;;;;;7359428;19;20446;-66
2022/11/22 00:52:38;;;;;;;10.35;4.80;;;5.90;33.40;;;;;;7354124;19;20017;-66
2022/11/22 00:55:09;;;;;;;10.73;5.05;;;5.80;34.10;;;;;;7359441;19;20010;-66
2022/11/22 00:57:39;;;;;;;8.20;4.82;;;5.90;34.60;;;;;;7361425;19;20014;-66
2022/11/22 01:00:10;;;;;;;9.45;5.40;;;5.90;34.20;;;;;;7379379;19;20022;-66
2022/11/22 01:02:40;;;;;;;8.95;5.03;;;5.90;32.90;;;;;;7353142;19;20018;-66
2022/11/22 01:05:13;;;;;;;8.30;4.70;;;6.00;33.10;;;;;;7359001;19;20017;-66
2022/11/22 01:07:42;;;;;;;10.95;4.68;;;5.90;33.30;;;;;;7360304;19;20346;-66
2022/11/22 01:10:12;;;;;;;7.68;4.13;;;6.00;34.10;;;;;;7357775;19;20501;-66
2022/11/22 01:12:42;;;;;;;8.00;3.83;;;6.00;34.60;;;;;;7357175;19;20018;-66
2022/11/22 01:15:13;;;;;;;5.90;3.55;;;6.00;34.40;;;;;;7387742;19;20022;-66
2022/11/22 01:17:43;;;;;;;5.80;3.40;;;6.10;33.90;;;;;;7368114;19;20474;-66
2022/11/22 01:20:15;;;;;;;5.82;3.00;;;6.20;33.50;;;;;;7364498;19;20010;-66
2022/11/22 01:22:45;;;;;;;6.63;3.10;;;6.20;32.80;;;;;;7359061;19;20447;-66
2022/11/22 01:25:15;;;;;;;7.22;2.90;;;6.20;32.60;;;;;;7367285;19;20016;-66
2022/11/22 01:27:45;;;;;;;6.05;3.03;;;6.30;31.70;;;;;;7367147;19;20011;-66
2022/11/22 01:30:15;;;;;;;7.30;2.88;;;6.30;31.40;;;;;;7378655;19;20031;-67
2022/11/22 01:32:45;;;;;;;4.95;2.75;;;6.20;31.20;;;;;;7383525;19;20006;-66
2022/11/22 01:35:18;;;;;;;7.55;2.65;;;6.20;32.10;;;;;;7365792;19;20011;-66
2022/11/22 01:37:48;;;;;;;5.95;3.15;;;6.20;32.20;;;;;;7366546;19;20015;-66
2022/11/22 01:40:18;;;;;;;5.35;2.83;;;6.20;33.00;;;;;;7363229;19;20006;-66
2022/11/22 01:42:52;;;;;;;4.75;2.55;;;6.30;33.90;;;;;;7359896;19;20022;-67
2022/11/22 01:45:47;;;;;;;6.45;3.05;;;6.30;33.90;;;;;;7365240;19;20058;-66
2022/11/22 01:48:41;;;;;;;5.85;3.17;;;6.30;34.70;;;;;;7364306;19;20078;-67
2022/11/22 01:51:20;;;;;;;7.80;3.35;;;6.30;34.90;;;;;;7379909;19;21114;-66
2022/11/22 01:53:50;;;;;;;6.25;3.00;;;6.30;34.90;;;;;;7365978;19;20018;-66
2022/11/22 01:56:22;;;;;;;9.65;2.72;;;6.30;34.90;;;;;;7365405;19;20893;-67
2022/11/22 01:58:57;;;;;;;6.93;2.95;;;6.30;34.90;;;;;;7364227;19;20011;-66
2022/11/22 02:01:28;;;;;;;7.20;2.80;;;6.30;34.90;;;;;;7356328;19;20498;-66
2022/11/22 02:04:02;;;;;;;4.78;2.40;;;6.30;35.20;;;;;;7364922;19;20019;-66
2022/11/22 02:06:48;;;;;;;7.70;2.67;;;6.40;35.70;;;;;;7366505;19;20034;-66
2022/11/22 02:09:18;;;;;;;4.55;2.25;;;6.40;35.70;;;;;;7363348;19;20025;-66
2022/11/22 02:11:51;;;;;;;4.60;1.90;;;6.40;35.60;;;;;;7377573;19;20023;-66
2022/11/22 02:14:25;;;;;;;2.33;1.77;;;6.40;35.10;;;;;;7363307;19;20014;-66
2022/11/22 02:16:55;;;;;;;5.22;2.00;;;6.50;35.10;;;;;;7365100;19;20013;-66
2022/11/22 02:19:33;;;;;;;4.60;2.20;;;6.50;35.10;;;;;;7363677;19;20792;-66
2022/11/22 02:22:12;;;;;;;3.42;1.92;;;6.50;35.10;;;;;;7354912;19;20013;-66
2022/11/22 02:24:47;;;;;;;4.88;2.30;;;6.40;35.30;;;;;;7364676;19;20174;-66
2022/11/22 02:27:20;;;;;;;4.25;1.98;;;6.40;36.30;;;;;;7366578;19;20019;-67
2022/11/22 02:29:49;;;;;;;4.18;2.40;;;6.40;36.20;;;;;;7384120;19;20413;-66
2022/11/22 02:32:19;;;;;;;6.03;1.92;;;6.40;35.80;;;;;;7355612;19;20028;-66
2022/11/22 02:34:51;;;;;;;4.32;2.08;;;6.40;36.00;;;;;;7364088;19;20036;-66
2022/11/22 02:37:25;;;;;;;8.60;2.90;;;6.40;36.10;;;;;;7365669;19;20010;-66
2022/11/22 02:39:59;;;;;;;4.40;1.90;;;6.40;36.20;;;;;;7363185;19;20497;-66
2022/11/22 02:42:33;;;;;;;5.45;2.75;;;6.40;35.80;;;;;;7355631;19;20012;-66
2022/11/22 02:45:03;;;;;;;4.28;1.90;;;6.40;36.10;;;;;;7385654;19;20022;-66
2022/11/22 02:47:34;;;;;;;4.07;2.00;;;6.50;36.00;;;;;;7365158;19;20006;-66
2022/11/22 02:50:03;;;;;;;4.25;2.30;;;6.50;35.70;;;;;;7363679;19;20072;-66
2022/11/22 02:52:33;;;;;;;4.28;2.00;;;6.50;35.20;;;;;;7357530;19;20025;-66
2022/11/22 02:55:03;;;;;;;6.85;2.20;;;6.50;35.50;;;;;;7363107;19;20006;-65
2022/11/22 02:57:35;;;;;;;5.82;2.35;;;6.50;36.10;;;;;;7364433;19;20014;-65
2022/11/22 03:00:07;;;;;;;6.18;2.60;;;6.40;35.70;;;;;;7383302;19;20482;-66
2022/11/22 03:02:36;;;;;;;3.90;1.90;;;6.40;35.90;;;;;;7356731;19;20010;-65
2022/11/22 03:05:06;;;;;;;5.70;2.80;;;6.30;36.20;;;;;;7361046;19;20022;-66
2022/11/22 03:07:36;;;;;;;6.30;2.22;;;6.30;37.00;;;;;;7362070;19;20010;-66
2022/11/22 03:10:07;;;;;;;4.15;2.17;;;6.30;37.30;;;;;;7361460;19;20089;-66
2022/11/22 03:12:39;;;;;;;5.10;2.05;;;6.30;37.30;;;;;;7355704;19;20025;-66
2022/11/22 03:15:10;;;;;;;3.20;1.92;;;6.30;37.70;;;;;;7384817;19;20035;-66
2022/11/22 03:17:39;;;;;;;5.65;2.45;;;6.30;37.80;;;;;;7364270;19;20011;-66
2022/11/22 03:20:10;;;;;;;4.35;2.50;;;6.20;37.30;;;;;;7361745;19;20342;-66
2022/11/22 03:22:40;;;;;;;3.97;1.98;;;6.20;37.60;;;;;;7354533;19;20015;-66
2022/11/22 03:25:11;;;;;;;4.80;2.22;;;6.10;37.50;;;;;;7383911;19;20485;-66
2022/11/22 03:27:43;;;;;;;5.00;2.20;;;6.20;38.00;;;;;;7362159;19;20033;-65
2022/11/22 03:30:14;;;;;;;6.55;2.10;;;6.10;37.80;;;;;;7359768;19;20021;-66
2022/11/22 03:32:44;;;;;;;6.40;2.30;;;6.00;38.40;;;;;;7357347;19;20029;-65
2022/11/22 03:35:14;;;;;;;4.93;2.30;;;6.00;38.90;;;;;;7361120;19;20017;-66
2022/11/22 03:37:44;;;;;;;5.22;2.33;;;5.90;39.50;;;;;;7362849;19;20343;-65
2022/11/22 03:40:15;;;;;;;5.53;2.50;;;5.90;39.30;;;;;;7380879;19;20010;-65
2022/11/22 03:42:47;;;;;;;3.97;2.60;;;5.90;40.30;;;;;;7356165;19;20015;-66
2022/11/22 03:45:17;;;;;;;7.20;3.13;;;5.80;40.20;;;;;;7361247;19;20025;-65
2022/11/22 03:47:47;;;;;;;4.15;2.25;;;5.90;40.70;;;;;;7363176;19;20021;-66
2022/11/22 03:50:17;;;;;;;5.47;2.40;;;5.90;41.40;;;;;;7358120;19;20011;-66
2022/11/22 03:52:47;;;;;;;4.13;1.83;;;5.90;40.90;;;;;;7357569;19;20021;-66
2022/11/22 03:55:17;;;;;;;3.85;2.40;;;5.90;40.90;;;;;;7379937;19;20011;-66
2022/11/22 03:57:50;;;;;;;4.93;2.17;;;5.90;41.30;;;;;;7361799;19;20350;-65
2022/11/22 04:00:20;;;;;;;5.80;2.40;;;5.90;41.50;;;;;;7356218;19;20502;-65
2022/11/22 04:02:50;;;;;;;5.38;2.17;;;5.90;40.90;;;;;;7356470;19;20011;-65
2022/11/22 04:05:20;;;;;;;7.80;2.45;;;5.90;41.00;;;;;;7360463;19;20021;-65
2022/11/22 04:07:54;;;;;;;6.50;2.42;;;5.90;40.90;;;;;;7361532;19;20427;-65
2022/11/22 04:10:24;;;;;;;5.68;2.90;;;5.90;41.20;;;;;;7354512;19;20057;-66
2022/11/22 04:12:58;;;;;;;7.63;2.28;;;5.90;40.70;;;;;;7377968;19;20544;-66
2022/11/22 04:15:26;;;;;;;4.85;2.65;;;5.90;40.50;;;;;;7359467;19;20021;-66
2022/11/22 04:17:56;;;;;;;7.20;2.40;;;5.90;40.10;;;;;;7361421;19;20039;-67
2022/11/22 04:23:12;;;;;;;4.47;2.47;;;5.90;38.80;;;;;;7358934;19;20011;-67
2022/11/22 04:25:42;;;;;;;5.72;2.63;;;5.90;38.80;;;;;;7388731;19;20256;-66
2022/11/22 04:28:16;;;;;;;5.30;2.33;;;5.90;38.80;;;;;;7389209;19;20014;-66
2022/11/22 04:33:29;;;;;;;8.73;2.95;;;5.90;38.70;;;;;;7388828;19;20523;-66
2022/11/22 04:35:59;;;;;;;3.60;2.50;;;5.90;38.70;;;;;;7388068;19;20017;-66
2022/11/22 04:38:29;;;;;;;4.85;2.67;;;5.90;38.70;;;;;;7388536;19;20054;-65
2022/11/22 04:40:59;;;;;;;6.88;2.85;;;5.90;38.00;;;;;;7380801;19;20035;-65
2022/11/22 04:46:16;;;;;;;7.05;3.40;;;5.90;37.40;;;;;;7359101;19;20015;-66
2022/11/22 04:48:46;;;;;;;11.23;3.72;;;5.80;37.50;;;;;;7365403;19;20101;-66
2022/11/22 04:54:00;;;;;;;6.80;3.25;;;5.70;37.80;;;;;;7367354;19;20039;-66
2022/11/22 04:56:29;;;;;;;5.70;2.47;;;5.60;37.80;;;;;;7388102;19;20018;-67
2022/11/22 04:59:02;;;;;;;6.82;3.25;;;5.60;38.00;;;;;;7365604;19;20571;-65
2022/11/22 05:01:32;;;;;;;7.82;3.17;;;5.50;38.40;;;;;;7358287;19;20014;-66
2022/11/22 05:04:02;;;;;;;5.03;2.95;;;5.50;38.50;;;;;;7366333;19;20013;-65
2022/11/22 05:06:31;;;;;;;9.43;2.90;;;5.40;38.40;;;;;;7366552;19;20094;-66
2022/11/22 05:09:01;;;;;;;4.93;2.60;;;5.30;38.70;;;;;;7365791;19;20022;-66
2022/11/22 05:11:31;;;;;;;9.45;4.20;;;5.20;39.00;;;;;;7379968;19;20014;-65
2022/11/22 05:14:03;;;;;;;6.38;2.83;;;5.10;39.50;;;;;;7366860;19;20009;-65
2022/11/22 05:16:33;;;;;;;4.78;2.60;;;5.10;40.20;;;;;;7366385;19;20015;-65
2022/11/22 05:19:03;;;;;;;5.13;3.00;;;5.00;40.60;;;;;;7366529;19;20017;-65
2022/11/22 05:21:36;;;;;;;5.15;2.83;;;4.90;41.50;;;;;;7380914;19;20470;-65
2022/11/22 05:24:04;;;;;;;8.32;2.90;;;4.90;42.10;;;;;;7368525;19;20022;-65
2022/11/22 05:26:35;;;;;;;8.07;2.90;;;4.90;42.40;;;;;;7383199;19;20018;-65
2022/11/22 05:29:10;;;;;;;11.75;3.03;;;4.90;42.80;;;;;;7345241;19;20018;-65
2022/11/22 05:31:42;;;;;;;9.13;3.72;;;4.90;43.30;;;;;;7357248;19;20003;-64
2022/11/22 05:34:19;;;;;;;10.85;3.13;;;4.90;43.70;;;;;;7366977;19;20007;-64
2022/11/22 05:36:49;;;;;;;6.82;2.75;;;4.90;44.10;;;;;;7366265;19;20019;-65
2022/11/22 05:39:19;;;;;;;11.10;3.45;;;4.90;44.70;;;;;;7364068;19;20011;-65
2022/11/22 05:41:57;;;;;;;8.38;3.25;;;5.00;45.50;;;;;;7377787;19;20018;-65
2022/11/22 05:44:29;;;;;;;11.50;3.45;;;5.00;45.60;;;;;;7365690;19;20425;-66
2022/11/22 05:46:59;;;;;;;10.45;3.22;;;5.00;46.00;;;;;;7366249;19;20017;-65
2022/11/22 05:49:29;;;;;;;10.52;3.15;;;5.10;46.30;;;;;;7365456;19;20011;-66
2022/11/22 05:51:59;;;;;;;9.35;3.22;;;5.20;46.30;;;;;;7357216;19;20021;-66
2022/11/22 05:54:29;;;;;;;10.50;3.78;;;5.30;45.80;;;;;;7365981;19;20170;-66
2022/11/22 05:56:59;;;;;;;9.18;3.60;;;5.30;45.20;;;;;;7385255;19;20026;-66
2022/11/22 05:59:31;;;;;;;13.50;4.70;;;5.30;44.50;;;;;;7364106;19;20038;-66
2022/11/22 06:02:01;;;;;;;15.85;5.90;;;5.40;44.00;;;;;;7356552;19;20548;-66
2022/11/22 06:04:31;;;;;;;21.33;7.45;;;5.30;43.60;;;;;;7364281;19;20494;-66
2022/11/22 06:07:01;;;;;;;22.70;8.85;;;5.30;43.40;;;;;;7365685;19;20011;-66
2022/11/22 06:09:38;;;;;;;25.35;9.70;;;5.30;43.40;;;;;;7362118;19;20023;-65
2022/11/22 06:12:08;;;;;;;22.35;7.60;;;5.30;43.40;;;;;;7355710;19;20007;-65
2022/11/22 06:14:41;;;;;;;16.33;5.65;;;5.30;43.50;;;;;;7387525;19;20034;-66
2022/11/22 06:17:12;;;;;;;10.55;4.82;;;5.20;43.50;;;;;;7364926;19;20074;-65
2022/11/22 06:19:42;;;;;;;9.23;4.15;;;5.30;43.70;;;;;;7363180;19;20010;-65
2022/11/22 06:22:11;;;;;;;11.65;3.83;;;5.20;43.70;;;;;;7355382;19;20015;-66
2022/11/22 06:24:41;;;;;;;13.10;3.70;;;5.20;43.90;;;;;;7364618;19;20010;-66
2022/11/22 06:27:11;;;;;;;9.82;4.22;;;5.30;43.60;;;;;;7364615;19;20043;-66
2022/11/22 06:29:44;;;;;;;6.85;3.42;;;5.30;43.80;;;;;;7381841;19;20474;-65
2022/11/22 06:32:14;;;;;;;12.10;4.03;;;5.30;43.60;;;;;;7353659;19;20014;-66
2022/11/22 06:34:44;;;;;;;9.07;3.90;;;5.30;43.30;;;;;;7363407;19;20018;-66
2022/11/22 06:37:16;;;;;;;10.02;3.75;;;5.30;42.60;;;;;;7361591;19;20006;-66
2022/11/22 06:39:46;;;;;;;9.75;3.40;;;5.40;42.60;;;;;;7358871;19;20022;-66
2022/11/22 06:42:17;;;;;;;8.18;3.55;;;5.40;42.50;;;;;;7352616;19;20490;-66
2022/11/22 06:44:49;;;;;;;9.23;3.75;;;5.40;42.70;;;;;;7383497;19;20018;-66
2022/11/22 06:47:19;;;;;;;10.18;3.50;;;5.40;42.50;;;;;;7361753;19;20578;-66
2022/11/22 06:49:49;;;;;;;13.10;3.83;;;5.40;42.50;;;;;;7359839;19;20018;-66
2022/11/22 06:52:18;;;;;;;10.98;3.47;;;5.30;43.20;;;;;;7349392;19;20422;-66
2022/11/22 06:54:48;;;;;;;19.73;5.90;;;5.40;42.60;;;;;;7362726;19;20077;-65
2022/11/22 06:57:19;;;;;;;12.13;6.57;;;5.50;42.50;;;;;;7362012;19;20018;-66
2022/11/22 06:59:51;;;;;;;12.32;8.75;;;5.50;41.80;;;;;;7382823;19;20022;-66
2022/11/22 07:02:21;;;;;;;14.10;10.60;;;5.50;41.70;;;;;;7352010;19;20034;-66
2022/11/22 07:04:51;;;;;;;13.65;10.23;;;5.50;41.50;;;;;;7361588;19;20010;-65
2022/11/22 07:07:41;;;;;;;16.55;9.15;;;5.50;41.50;;;;;;7358269;19;20021;-65
2022/11/22 07:10:11;;;;;;;7.72;5.95;;;5.50;41.30;;;;;;7351535;19;20378;-66
2022/11/22 07:12:41;;;;;;;15.98;6.45;;;5.50;41.00;;;;;;7352299;19;20011;-67
2022/11/22 07:15:14;;;;;;;13.82;4.68;;;5.50;40.80;;;;;;7350940;19;20011;-66
2022/11/22 07:17:43;;;;;;;9.95;3.83;;;5.60;40.90;;;;;;7383349;19;20018;-66
2022/11/22 07:20:13;;;;;;;11.27;4.20;;;5.60;40.50;;;;;;7359867;19;20014;-65
2022/11/22 07:22:43;;;;;;;8.38;3.38;;;5.60;39.90;;;;;;7353186;19;20027;-65
2022/11/22 07:25:13;;;;;;;10.98;3.42;;;5.60;39.60;;;;;;7361956;19;20010;-65
2022/11/22 07:27:43;;;;;;;12.95;4.30;;;5.70;39.00;;;;;;7362865;19;20007;-66
2022/11/22 07:30:17;;;;;;;10.82;3.45;;;5.70;38.70;;;;;;7358930;19;20039;-65
2022/11/22 07:32:48;;;;;;;9.83;3.30;;;5.70;37.90;;;;;;7376187;19;20038;-66
2022/11/22 07:35:18;;;;;;;11.63;4.30;;;5.70;37.20;;;;;;7361761;19;20795;-67
2022/11/22 07:37:48;;;;;;;11.27;4.68;;;5.70;36.80;;;;;;7361720;19;20021;-66
2022/11/22 07:40:18;;;;;;;11.43;4.88;;;5.80;36.80;;;;;;7357750;19;20014;-66
2022/11/22 07:42:48;;;;;;;16.95;4.10;;;5.90;36.00;;;;;;7356586;19;20914;-65
2022/11/22 07:45:26;;;;;;;7.22;3.47;;;5.90;34.90;;;;;;7362623;19;20020;-66
2022/11/22 07:47:56;;;;;;;9.82;3.13;;;5.80;34.40;;;;;;7383904;19;20503;-66
2022/11/22 07:50:26;;;;;;;10.80;3.45;;;5.90;34.50;;;;;;7356921;19;20014;-66
2022/11/22 07:52:57;;;;;;;10.15;3.72;;;5.90;34.60;;;;;;7353700;19;20090;-65
2022/11/22 07:55:30;;;;;;;10.57;4.22;;;5.90;34.60;;;;;;7360509;19;20237;-65
2022/11/22 07:58:03;;;;;;;16.50;4.82;;;6.00;34.10;;;;;;7360950;19;20011;-66
2022/11/22 08:00:35;;;;;;;13.52;4.75;;;6.00;32.90;;;;;;7356035;19;20021;-65
2022/11/22 08:03:08;;;;;;;14.93;4.82;;;6.10;32.30;;;;;;7356972;19;20492;-65
2022/11/22 08:05:38;;;;;;;17.33;6.18;;;6.10;32.60;;;;;;7381161;19;20024;-66
2022/11/22 08:08:08;;;;;;;14.93;4.93;;;6.10;33.20;;;;;;7359088;19;20011;-66
2022/11/22 08:10:38;;;;;;;13.55;4.88;;;6.10;32.60;;;;;;7354123;19;20034;-66
2022/11/22 08:13:07;;;;;;;14.43;4.70;;;6.20;32.70;;;;;;7356767;19;20085;-66
2022/11/22 08:15:40;;;;;;;15.40;4.15;;;6.20;32.40;;;;;;7359587;19;20488;-66
2022/11/22 08:18:12;;;;;;;6.93;3.80;;;6.20;32.20;;;;;;7359339;19;20014;-65
2022/11/22 08:20:42;;;;;;;13.52;4.13;;;6.30;31.60;;;;;;7375088;19;21178;-65
2022/11/22 08:23:12;;;;;;;6.78;3.75;;;6.30;31.10;;;;;;7356511;19;20015;-66
2022/11/22 08:25:42;;;;;;;8.93;3.80;;;6.30;31.20;;;;;;7358291;19;20719;-65
2022/11/22 08:28:12;;;;;;;7.13;3.78;;;6.40;31.30;;;;;;7361118;19;20025;-65
2022/11/22 08:30:44;;;;;;;9.20;3.20;;;6.40;31.60;;;;;;7355672;19;20430;-65
2022/11/22 08:33:14;;;;;;;14.63;3.97;;;6.40;30.80;;;;;;7356780;19;20022;-66
2022/11/22 08:35:44;;;;;;;10.82;3.67;;;6.40;30.60;;;;;;7382687;19;20045;-66
2022/11/22 08:38:14;;;;;;;9.57;3.95;;;6.50;30.80;;;;;;7359947;19;20531;-66
2022/11/22 08:40:44;;;;;;;16.35;3.90;;;6.60;30.20;;;;;;7355241;19;20410;-65
2022/11/22 08:43:14;;;;;;;15.48;3.65;;;6.60;29.90;;;;;;7357295;19;20007;-66
2022/11/22 08:45:46;;;;;;;11.75;3.90;;;6.60;29.80;;;;;;7361076;19;20082;-65
2022/11/22 08:48:16;;;;;;;11.63;4.40;;;6.70;29.80;;;;;;7359345;19;20010;-64
2022/11/22 08:50:54;;;;;;;10.05;4.25;;;6.70;28.90;;;;;;7378058;19;20007;-67
2022/11/22 08:53:25;;;;;;;31.98;12.80;;;6.80;28.60;;;;;;7357397;19;20011;-66
2022/11/22 08:55:56;;;;;;;12.13;5.03;;;6.90;28.40;;;;;;7360066;19;20537;-65
2022/11/22 08:58:25;;;;;;;14.38;5.18;;;7.00;27.70;;;;;;7359695;19;20477;-65
2022/11/22 09:00:58;;;;;;;13.98;4.50;;;6.90;27.10;;;;;;7353315;19;20024;-65
2022/11/22 09:03:28;;;;;;;13.40;4.38;;;7.00;26.00;;;;;;7355255;19;20474;-66
2022/11/22 09:06:02;;;;;;;13.02;4.13;;;7.00;25.80;;;;;;7379685;19;20010;-66
2022/11/22 09:08:52;;;;;;;6.57;3.72;;;7.10;26.10;;;;;;7356339;19;20478;-66
2022/11/22 09:11:42;;;;;;;12.55;3.33;;;7.10;25.20;;;;;;7351182;19;20022;-66
2022/11/22 09:14:12;;;;;;;18.52;4.75;;;7.20;24.40;;;;;;7357942;19;20025;-66
2022/11/22 09:16:44;;;;;;;9.73;4.00;;;7.20;23.70;;;;;;7358210;19;20471;-66
2022/11/22 09:19:14;;;;;;;14.35;4.00;;;7.20;22.40;;;;;;7357382;19;20013;-64
2022/11/22 09:21:44;;;;;;;9.90;3.90;;;7.20;21.00;;;;;;7350922;19;20014;-66
2022/11/22 09:24:14;;;;;;;10.27;3.83;;;7.30;21.50;;;;;;7356336;19;20494;-65
2022/11/22 09:26:44;;;;;;;8.85;3.60;;;7.40;21.70;;;;;;7384261;19;20019;-65
2022/11/22 09:29:14;;;;;;;10.43;3.63;;;7.50;21.30;;;;;;7361873;19;20007;-65
2022/11/22 09:31:47;;;;;;;10.23;3.33;;;7.50;20.30;;;;;;7354787;19;20010;-66
2022/11/22 09:34:17;;;;;;;10.77;4.60;;;7.50;20.10;;;;;;7369169;19;20015;-66
2022/11/22 09:36:46;;;;;;;10.05;3.33;;;7.60;19.20;;;;;;7369488;19;20021;-66
2022/11/22 09:39:16;;;;;;;10.45;3.67;;;7.70;17.80;;;;;;7368618;19;20014;-66
2022/11/22 09:42:12;;;;;;;9.70;3.70;;;7.70;17.70;;;;;;7383758;19;20458;-66
2022/11/22 09:45:05;;;;;;;15.05;3.38;;;7.70;15.70;;;;;;7370265;19;20022;-66
2022/11/22 09:47:44;;;;;;;10.27;3.10;;;7.80;14.40;;;;;;7367806;19;19998;-65
2022/11/22 09:50:22;;;;;;;8.77;2.83;;;7.80;15.20;;;;;;7366956;19;20006;-66
2022/11/22 09:52:58;;;;;;;7.68;3.33;;;7.90;15.00;;;;;;7364988;19;20085;-67
2022/11/22 09:55:35;;;;;;;6.40;2.70;;;7.90;14.40;;;;;;7369538;19;20370;-65
2022/11/22 09:58:11;;;;;;;12.93;3.35;;;7.90;15.60;;;;;;7370206;19;20006;-65
2022/11/22 10:00:43;;;;;;;7.03;2.72;;;7.90;15.40;;;;;;7363524;19;20012;-66
2022/11/22 10:03:29;;;;;;;10.77;3.13;;;7.90;14.40;;;;;;7367118;19;20052;-65
2022/11/22 10:06:02;;;;;;;12.13;3.40;;;7.80;14.40;;;;;;7392668;19;20034;-66
2022/11/22 10:08:41;;;;;;;8.95;3.30;;;7.90;14.20;;;;;;7367637;19;20015;-66
2022/11/22 10:11:17;;;;;;;8.25;3.50;;;7.90;15.00;;;;;;7362342;19;20014;-65
2022/11/22 10:14:27;;;;;;;12.07;3.75;;;7.90;14.30;;;;;;7369376;19;20011;-66
2022/11/22 10:17:01;;;;;;;14.15;3.38;;;7.90;14.40;;;;;;7367319;19;20039;-65
2022/11/22 10:19:39;;;;;;;7.28;3.00;;;8.00;14.10;;;;;;7369043;19;20082;-65
2022/11/22 10:22:13;;;;;;;14.38;3.40;;;8.00;13.20;;;;;;7359890;19;20015;-66
2022/11/22 10:24:43;;;;;;;7.78;2.80;;;8.00;12.40;;;;;;7367261;19;20477;-65
2022/11/22 10:27:15;;;;;;;12.82;3.42;;;8.00;14.50;;;;;;7366737;19;20018;-66
2022/11/22 10:29:54;;;;;;;10.32;3.35;;;8.10;14.60;;;;;;7388652;19;20015;-66
2022/11/22 10:32:30;;;;;;;10.20;3.20;;;8.20;14.70;;;;;;7358316;19;20017;-67
2022/11/22 10:35:21;;;;;;;9.60;3.22;;;8.10;12.90;;;;;;7367260;19;20504;-65
2022/11/22 10:37:58;;;;;;;8.40;3.10;;;8.20;12.30;;;;;;7367660;19;20465;-66
2022/11/22 10:40:38;;;;;;;11.07;2.90;;;8.20;12.50;;;;;;7361150;19;20470;-65
2022/11/22 10:43:30;;;;;;;13.82;2.85;;;8.20;11.10;;;;;;7364895;19;20006;-65
2022/11/22 10:46:07;;;;;;;12.00;3.80;;;8.30;11.30;;;;;;7368700;19;20079;-65
2022/11/22 10:48:44;;;;;;;9.35;3.00;;;8.40;11.10;;;;;;7366732;19;20081;-65
2022/11/22 10:51:24;;;;;;;15.43;2.80;;;8.40;11.50;;;;;;7361477;19;20462;-65
2022/11/22 10:54:05;;;;;;;7.18;2.13;;;8.40;11.10;;;;;;7388810;19;20497;-64
2022/11/22 10:56:45;;;;;;;12.05;5.18;;;8.40;6.80;;;;;;7368441;19;20364;-65
2022/11/22 10:59:41;;;;;;;9.45;2.17;;;8.50;6.00;;;;;;7367503;19;20003;-65
2022/11/22 11:02:25;;;;;;;7.75;2.13;;;8.40;1.00;;;;;;7359751;19;20009;-65
2022/11/22 11:04:57;;;;;;;6.22;1.70;;;8.40;2.00;;;;;;7366777;19;20010;-65
2022/11/22 11:07:30;;;;;;;6.20;1.35;;;8.40;1.00;;;;;;7365792;19;20398;-65
2022/11/22 11:10:04;;;;;;;14.43;3.90;;;8.40;1.00;;;;;;7367122;19;20031;-65
2022/11/22 11:12:59;;;;;;;11.18;2.92;;;8.50;1.00;;;;;;7363279;19;20026;-65
2022/11/22 11:15:35;;;;;;;4.20;1.80;;;8.60;1.00;;;;;;7367549;19;20645;-65
2022/11/22 11:18:09;;;;;;;7.40;1.85;;;8.60;1.00;;;;;;7365116;19;20473;-65
2022/11/22 11:20:46;;;;;;;6.55;2.10;;;8.60;1.00;;;;;;7381530;19;20588;-65
2022/11/22 11:23:18;;;;;;;7.22;1.80;;;8.50;1.00;;;;;;7364310;19;20026;-66
2022/11/22 11:25:51;;;;;;;4.93;1.50;;;8.50;1.00;;;;;;7368428;19;20006;-66
2022/11/22 11:28:23;;;;;;;4.30;1.33;;;8.60;1.00;;;;;;7365254;19;20085;-66
2022/11/22 11:30:55;;;;;;;5.25;1.48;;;8.50;1.00;;;;;;7362129;19;20019;-66
2022/11/22 11:33:30;;;;;;;3.67;1.30;;;8.60;1.00;;;;;;7363810;19;20009;-67
2022/11/22 11:36:07;;;;;;;6.20;1.67;;;8.60;1.00;;;;;;7389133;19;20033;-66
2022/11/22 11:38:53;;;;;;;6.53;1.52;;;8.70;1.00;;;;;;7364579;19;20010;-66
2022/11/22 11:41:26;;;;;;;9.20;1.90;;;8.70;1.00;;;;;;7359686;19;20454;-66
2022/11/22 11:43:59;;;;;;;7.05;1.73;;;8.80;1.00;;;;;;7365257;19;20107;-66
2022/11/22 11:46:30;;;;;;;8.07;1.70;;;8.70;1.00;;;;;;7365581;19;20010;-67
2022/11/22 11:49:11;;;;;;;7.57;1.80;;;8.80;1.00;;;;;;7365214;19;20013;-66
2022/11/22 11:51:44;;;;;;;8.80;2.13;;;8.80;1.00;;;;;;7358613;19;20007;-65
2022/11/22 11:54:19;;;;;;;6.88;1.65;;;8.80;1.00;;;;;;7365449;19;20502;-66
2022/11/22 11:56:53;;;;;;;5.25;1.40;;;8.90;1.00;;;;;;7385917;19;20023;-66
2022/11/22 11:59:25;;;;;;;7.15;2.17;;;8.80;1.00;;;;;;7365208;19;20517;-66
2022/11/22 12:01:59;;;;;;;10.75;1.38;;;8.80;1.00;;;;;;7358252;19;20010;-67
2022/11/22 12:04:31;;;;;;;6.75;1.50;;;8.80;1.00;;;;;;7366078;19;20077;-67
2022/11/22 12:07:05;;;;;;;6.68;1.58;;;8.70;1.00;;;;;;7365322;19;20006;-67
2022/11/22 12:09:44;;;;;;;6.53;1.30;;;8.80;1.00;;;;;;7365215;19;20003;-66
2022/11/22 12:12:39;;;;;;;3.33;1.17;;;8.80;1.00;;;;;;7357096;19;20010;-68
2022/11/22 12:15:18;;;;;;;6.63;2.05;;;8.90;1.00;;;;;;7365589;19;20011;-68
2022/11/22 12:17:54;;;;;;;4.07;1.70;;;8.80;1.00;;;;;;7386918;19;20003;-67
2022/11/22 12:20:30;;;;;;;6.35;1.10;;;8.90;1.00;;;;;;7360658;19;20009;-67
2022/11/22 12:23:15;;;;;;;5.38;1.45;;;8.80;1.00;;;;;;7361728;19;20014;-67
2022/11/22 12:25:48;;;;;;;6.28;1.67;;;8.80;1.00;;;;;;7365462;19;20018;-67
2022/11/22 12:28:21;;;;;;;4.40;1.40;;;8.70;1.00;;;;;;7363139;19;20512;-66
2022/11/22 12:30:55;;;;;;;6.63;1.50;;;8.70;1.00;;;;;;7359858;19;20011;-68
2022/11/22 12:33:30;;;;;;;3.00;1.10;;;8.90;1.00;;;;;;7361091;19;20008;-66
2022/11/22 12:36:00;;;;;;;3.10;1.20;;;8.90;1.00;;;;;;7386889;19;20021;-67
2022/11/22 12:38:34;;;;;;;8.73;1.50;;;8.80;1.00;;;;;;7362962;19;20025;-68
2022/11/22 12:41:12;;;;;;;7.90;1.50;;;8.80;1.00;;;;;;7358742;19;20102;-67
2022/11/22 12:43:48;;;;;;;3.50;1.30;;;8.80;1.00;;;;;;7362391;19;20038;-67
2022/11/22 12:46:21;;;;;;;5.05;1.15;;;8.90;1.00;;;;;;7366136;19;20007;-69
2022/11/22 12:48:58;;;;;;;10.80;1.40;;;8.80;1.00;;;;;;7362971;19;20022;-70
2022/11/22 12:51:35;;;;;;;6.13;1.90;;;8.80;1.00;;;;;;7356011;19;20014;-68
2022/11/22 12:54:11;;;;;;;16.15;5.63;;;8.80;1.00;;;;;;7358458;19;20057;-69
2022/11/22 12:56:50;;;;;;;7.05;1.40;;;8.90;1.00;;;;;;7384980;19;20019;-68
2022/11/22 12:59:29;;;;;;;6.70;1.25;;;8.80;1.00;;;;;;7356944;19;20024;-68
2022/11/22 13:02:11;;;;;;;8.80;1.40;;;8.70;1.00;;;;;;7351095;19;20489;-68
2022/11/22 13:04:48;;;;;;;4.38;1.13;;;8.70;1.00;;;;;;7362762;19;20007;-68
2022/11/22 13:07:25;;;;;;;5.55;1.17;;;8.80;1.00;;;;;;7360463;19;20485;-67
2022/11/22 13:10:01;;;;;;;3.90;1.10;;;8.80;1.00;;;;;;7367889;19;20031;-69
2022/11/22 13:12:37;;;;;;;7.10;1.38;;;8.90;1.00;;;;;;7364095;19;20438;-68
2022/11/22 13:15:08;;;;;;;3.35;1.05;;;8.90;1.00;;;;;;7367949;19;20014;-68
2022/11/22 13:17:39;;;;;;;2.92;0.90;;;8.80;1.00;;;;;;7392203;19;20006;-68
2022/11/22 13:20:16;;;;;;;4.38;1.30;;;8.80;1.00;;;;;;7366429;19;20339;-68
2022/11/22 13:22:59;;;;;;;4.45;1.10;;;8.80;1.00;;;;;;7362494;19;20034;-68
2022/11/22 13:25:50;;;;;;;4.60;1.05;;;8.80;1.00;;;;;;7370359;19;20383;-68
2022/11/22 13:28:26;;;;;;;5.10;1.33;;;8.70;1.00;;;;;;7364171;19;20010;-68
2022/11/22 13:31:16;;;;;;;4.85;0.98;;;8.70;1.00;;;;;;7365320;19;20018;-67
2022/11/22 13:33:56;;;;;;;3.40;1.20;;;8.70;1.00;;;;;;7369404;19;20109;-67
2022/11/22 13:36:40;;;;;;;3.95;1.45;;;8.70;1.00;;;;;;7370295;19;20086;-67
2022/11/22 13:39:17;;;;;;;3.63;0.77;;;8.70;1.00;;;;;;7367996;19;21848;-68